createdAt,value
2022-09-12T00:02:15.154Z,5.30
2022-09-12T00:04:50.872Z,3.28
2022-09-12T00:07:18.958Z,3.67
2022-09-12T00:09:49.658Z,2.63
2022-09-12T00:12:22.924Z,2.55
2022-09-12T00:14:56.380Z,4.03
2022-09-12T00:17:32.626Z,3.08
2022-09-12T00:20:07.430Z,4.13
2022-09-12T00:22:41.459Z,2.95
2022-09-12T00:25:17.305Z,2.95
2022-09-12T00:27:47.470Z,4.18
2022-09-12T00:30:19.960Z,6.50
2022-09-12T00:32:48.059Z,4.13
2022-09-12T00:35:18.533Z,4.05
2022-09-12T00:37:45.981Z,4.03
2022-09-12T00:40:16.445Z,3.03
2022-09-12T00:42:48.857Z,2.92
2022-09-12T00:45:28.447Z,3.30
2022-09-12T00:47:56.873Z,5.00
2022-09-12T00:50:24.807Z,3.88
2022-09-12T00:53:07.371Z,3.03
2022-09-12T00:55:36.996Z,2.92
2022-09-12T00:58:09.750Z,3.90
2022-09-12T01:00:36.897Z,2.45
2022-09-12T01:03:14.802Z,3.35
2022-09-12T01:05:47.017Z,3.33
2022-09-12T01:08:13.831Z,2.60
2022-09-12T01:10:41.057Z,2.60
2022-09-12T01:13:09.284Z,4.38
2022-09-12T01:15:40.025Z,3.47
2022-09-12T01:18:28.430Z,3.15
2022-09-12T01:21:07.116Z,3.38
2022-09-12T01:23:55.101Z,4.15
2022-09-12T01:26:40.100Z,5.40
2022-09-12T01:29:25.399Z,3.20
2022-09-12T01:32:24.118Z,3.30
2022-09-12T01:35:02.688Z,4.45
2022-09-12T01:37:34.290Z,3.20
2022-09-12T01:40:14.747Z,2.70
2022-09-12T01:43:21.347Z,3.17
2022-09-12T01:45:57.037Z,3.33
2022-09-12T01:48:31.315Z,5.85
2022-09-12T01:51:14.028Z,3.00
2022-09-12T01:53:51.549Z,3.88
2022-09-12T01:56:26.879Z,4.40
2022-09-12T01:59:04.020Z,3.85
2022-09-12T02:01:42.023Z,6.07
2022-09-12T02:04:34.226Z,2.63
2022-09-12T02:07:11.029Z,4.65
2022-09-12T02:09:47.731Z,3.63
2022-09-12T02:12:17.618Z,4.00
2022-09-12T02:14:52.143Z,4.73
2022-09-12T02:17:21.604Z,2.97
2022-09-12T02:20:14.594Z,4.07
2022-09-12T02:22:48.658Z,3.78
2022-09-12T02:25:18.192Z,4.32
2022-09-12T02:27:48.378Z,4.20
2022-09-12T02:30:19.635Z,4.43
2022-09-12T02:33:01.830Z,7.22
2022-09-12T02:35:50.293Z,5.38
2022-09-12T02:38:37.159Z,2.67
2022-09-12T02:41:04.105Z,2.97
2022-09-12T02:43:33.713Z,4.38
2022-09-12T02:46:09.381Z,4.10
2022-09-12T02:48:45.384Z,3.10
2022-09-12T02:51:20.305Z,3.10
2022-09-12T02:53:51.949Z,3.55
2022-09-12T02:56:30.281Z,6.93
2022-09-12T02:59:08.002Z,4.88
2022-09-12T03:01:57.582Z,4.97
2022-09-12T03:04:30.309Z,23.27
2022-09-12T03:07:18.680Z,6.63
2022-09-12T03:10:01.546Z,3.85
2022-09-12T03:13:05.007Z,3.85
2022-09-12T03:16:04.242Z,8.45
2022-09-12T03:18:45.839Z,8.98
2022-09-12T03:21:26.534Z,6.22
2022-09-12T03:24:16.641Z,4.78
2022-09-12T03:26:48.120Z,3.33
2022-09-12T03:29:15.493Z,4.28
2022-09-12T03:31:50.117Z,5.15
2022-09-12T03:34:16.881Z,4.35
2022-09-12T03:36:43.540Z,5.75
2022-09-12T03:39:10.187Z,12.65
2022-09-12T03:41:36.919Z,65.60
2022-09-12T03:44:04.703Z,86.15
2022-09-12T03:46:31.365Z,57.25
2022-09-12T03:48:58.176Z,157.82
2022-09-12T03:51:24.883Z,126.53
2022-09-12T03:53:51.681Z,48.83
2022-09-12T03:56:19.474Z,51.55
2022-09-12T03:58:46.475Z,17.30
2022-09-12T04:01:15.915Z,11.95
2022-09-12T04:03:44.160Z,42.45
2022-09-12T04:06:13.339Z,45.97
2022-09-12T04:08:40.311Z,32.88
2022-09-12T04:11:15.006Z,14.05
2022-09-12T04:13:43.372Z,8.32
2022-09-12T04:16:10.835Z,6.47
2022-09-12T04:18:37.574Z,8.25
2022-09-12T04:21:07.077Z,5.53
2022-09-12T04:23:33.968Z,14.18
2022-09-12T04:26:02.280Z,8.25
2022-09-12T04:28:30.109Z,4.70
2022-09-12T04:30:57.531Z,5.38
2022-09-12T04:33:24.265Z,6.10
2022-09-12T04:35:50.960Z,6.03
2022-09-12T04:38:17.620Z,4.68
2022-09-12T04:40:44.285Z,4.60
2022-09-12T04:43:14.422Z,4.28
2022-09-12T04:45:41.494Z,4.43
2022-09-12T04:48:08.152Z,7.70
2022-09-12T04:50:34.784Z,6.43
2022-09-12T04:53:01.555Z,5.43
2022-09-12T04:55:28.234Z,8.27
2022-09-12T04:57:54.960Z,5.47
2022-09-12T05:00:21.847Z,6.20
2022-09-12T05:02:48.566Z,6.13
2022-09-12T05:05:15.373Z,12.70
2022-09-12T05:12:03.170Z,5.65
2022-09-12T05:14:25.615Z,8.15
2022-09-12T05:16:52.247Z,12.18
2022-09-12T05:19:18.888Z,4.30
2022-09-12T05:21:45.532Z,4.60
2022-09-12T05:24:12.194Z,10.18
2022-09-12T05:26:38.865Z,7.60
2022-09-12T05:29:07.183Z,6.28
2022-09-12T05:31:34.036Z,4.80
2022-09-12T05:34:00.694Z,5.70
2022-09-12T05:36:30.615Z,6.47
2022-09-12T05:38:57.247Z,4.93
2022-09-12T05:41:32.983Z,6.28
2022-09-12T05:44:05.355Z,7.25
2022-09-12T05:46:37.183Z,6.32
2022-09-12T05:49:05.722Z,5.75
2022-09-12T05:51:34.729Z,7.28
2022-09-12T05:54:03.442Z,4.97
2022-09-12T05:56:32.295Z,4.63
2022-09-12T05:59:04.138Z,5.22
2022-09-12T06:01:32.199Z,4.65
2022-09-12T06:04:02.715Z,5.18
2022-09-12T06:06:30.419Z,5.07
2022-09-12T06:09:00.649Z,4.97
2022-09-12T06:11:29.692Z,5.55
2022-09-12T06:13:57.951Z,5.00
2022-09-12T06:16:27.065Z,5.55
2022-09-12T06:18:57.790Z,7.28
2022-09-12T06:21:26.596Z,7.13
2022-09-12T06:23:55.186Z,7.00
2022-09-12T06:26:23.607Z,5.63
2022-09-12T06:28:50.656Z,5.97
2022-09-12T06:31:20.913Z,6.85
2022-09-12T06:33:50.317Z,4.97
2022-09-12T06:36:19.746Z,7.85
2022-09-12T06:38:46.530Z,8.07
2022-09-12T06:41:13.755Z,6.43
2022-09-12T06:43:41.529Z,5.32
2022-09-12T06:46:09.656Z,7.03
2022-09-12T06:48:41.590Z,7.68
2022-09-12T06:51:17.320Z,11.18
2022-09-12T06:53:44.824Z,7.70
2022-09-12T06:56:14.055Z,6.07
2022-09-12T06:58:41.841Z,7.22
2022-09-12T07:01:14.259Z,7.43
2022-09-12T07:03:41.825Z,7.75
2022-09-12T07:06:11.048Z,15.05
2022-09-12T07:08:38.594Z,8.98
2022-09-12T07:11:26.188Z,6.18
2022-09-12T07:13:56.145Z,5.97
2022-09-12T07:16:23.821Z,8.47
2022-09-12T07:18:52.514Z,9.50
2022-09-12T07:21:19.604Z,6.50
2022-09-12T07:23:46.971Z,6.57
2022-09-12T07:26:15.015Z,6.72
2022-09-12T07:28:42.022Z,6.00
2022-09-12T07:31:14.502Z,6.05
2022-09-12T07:33:42.121Z,5.53
2022-09-12T07:36:12.330Z,5.03
2022-09-12T07:38:39.566Z,6.47
2022-09-12T07:41:23.702Z,4.75
2022-09-12T07:43:54.897Z,5.82
2022-09-12T07:46:22.542Z,6.00
2022-09-12T07:48:50.211Z,11.57
2022-09-12T07:51:17.538Z,5.82
2022-09-12T07:53:44.343Z,6.22
2022-09-12T07:56:12.202Z,4.15
2022-09-12T07:58:43.294Z,4.10
2022-09-12T08:01:13.981Z,5.65
2022-09-12T08:06:14.055Z,53.85
2022-09-12T08:08:41.220Z,22.27
2022-09-12T08:11:10.505Z,14.07
2022-09-12T08:13:38.405Z,9.65
2022-09-12T08:16:08.227Z,5.82
2022-09-12T08:18:36.447Z,7.13
2022-09-12T08:21:08.421Z,6.43
2022-09-12T08:23:35.160Z,4.78
2022-09-12T08:26:06.368Z,3.80
2022-09-12T08:28:35.115Z,2.83
2022-09-12T08:31:03.379Z,2.72
2022-09-12T08:33:33.753Z,2.03
2022-09-12T08:36:10.423Z,4.20
2022-09-12T08:38:38.853Z,4.22
2022-09-12T08:41:15.377Z,3.72
2022-09-12T08:44:03.359Z,3.95
2022-09-12T08:47:04.192Z,4.15
2022-09-12T08:49:36.999Z,3.05
2022-09-12T08:52:09.852Z,2.67
2022-09-12T08:54:36.570Z,2.95
2022-09-12T08:57:04.719Z,1.98
2022-09-12T08:59:37.014Z,1.38
2022-09-12T09:02:13.854Z,3.38
2022-09-12T09:04:51.616Z,5.22
2022-09-12T09:07:50.341Z,3.72
2022-09-12T09:10:32.729Z,2.20
2022-09-12T09:13:40.809Z,1.45
2022-09-12T09:16:13.894Z,1.85
2022-09-12T09:18:45.919Z,2.53
2022-09-12T09:21:21.942Z,2.30
2022-09-12T09:23:53.012Z,1.30
2022-09-12T09:26:26.672Z,1.05
2022-09-12T09:29:06.563Z,1.25
2022-09-12T09:31:38.113Z,1.35
2022-09-12T09:34:14.769Z,3.55
2022-09-12T09:37:07.230Z,4.82
2022-09-12T09:39:52.432Z,1.48
2022-09-12T09:42:41.944Z,2.92
2022-09-12T09:45:17.544Z,4.78
2022-09-12T09:47:47.158Z,1.90
2022-09-12T09:50:16.933Z,1.27
2022-09-12T09:52:44.006Z,2.03
2022-09-12T09:55:17.661Z,1.67
2022-09-12T09:57:45.594Z,2.13
2022-09-12T10:00:32.237Z,6.22
2022-09-12T10:03:13.935Z,1.10
2022-09-12T10:05:51.430Z,1.45
2022-09-12T10:08:26.760Z,2.58
2022-09-12T10:11:07.584Z,4.60
2022-09-12T10:16:06.174Z,4.57
2022-09-12T10:18:43.024Z,4.60
2022-09-12T10:21:15.543Z,0.77
2022-09-12T10:23:42.486Z,3.13
2022-09-12T10:26:11.492Z,1.17
2022-09-12T10:28:49.733Z,1.75
2022-09-12T10:31:29.026Z,1.10
2022-09-12T10:33:59.981Z,5.68
2022-09-12T10:36:36.015Z,2.70
2022-09-12T10:39:02.891Z,1.73
2022-09-12T10:41:37.229Z,0.95
2022-09-12T10:44:09.981Z,1.52
2022-09-12T10:46:36.656Z,1.63
2022-09-12T10:49:14.095Z,1.70
2022-09-12T10:51:40.841Z,1.67
2022-09-12T10:54:10.444Z,1.38
2022-09-12T10:57:02.128Z,1.90
2022-09-12T10:59:41.207Z,2.80
2022-09-12T11:02:31.156Z,2.55
2022-09-12T11:05:37.394Z,1.75
2022-09-12T11:08:29.407Z,1.92
2022-09-12T11:11:39.259Z,14.18
2022-09-12T11:14:54.162Z,2.70
2022-09-12T11:17:54.858Z,28.45
2022-09-12T11:20:30.541Z,10.77
2022-09-12T11:23:25.082Z,6.25
2022-09-12T11:26:19.265Z,1.48
2022-09-12T11:29:16.132Z,1.58
2022-09-12T11:31:55.663Z,2.53
2022-09-12T11:34:53.474Z,1.23
2022-09-12T11:37:43.760Z,1.48
2022-09-12T11:40:20.597Z,2.33
2022-09-12T11:42:49.817Z,1.60
2022-09-12T11:45:23.462Z,0.93
2022-09-12T11:47:53.849Z,2.03
2022-09-12T11:50:26.406Z,4.95
2022-09-12T11:52:58.206Z,1.27
2022-09-12T11:55:28.382Z,1.08
2022-09-12T11:57:56.723Z,1.58
2022-09-12T12:00:28.077Z,1.55
2022-09-12T12:03:14.312Z,0.55
2022-09-12T12:06:06.242Z,1.13
2022-09-12T12:08:38.518Z,1.77
2022-09-12T12:11:08.157Z,1.25
2022-09-12T12:13:39.426Z,1.23
2022-09-12T12:16:25.362Z,4.00
2022-09-12T12:18:59.343Z,0.93
2022-09-12T12:21:32.137Z,2.00
2022-09-12T12:24:08.014Z,1.92
2022-09-12T12:26:44.481Z,1.65
2022-09-12T12:29:17.219Z,1.52
2022-09-12T12:31:59.281Z,2.10
2022-09-12T12:34:29.931Z,2.08
2022-09-12T12:39:43.487Z,1.17
2022-09-12T12:42:10.337Z,0.82
2022-09-12T12:44:47.339Z,1.48
2022-09-12T12:47:20.348Z,1.92
2022-09-12T12:50:10.445Z,1.02
2022-09-12T12:52:47.686Z,0.95
2022-09-12T12:55:22.926Z,3.15
2022-09-12T12:57:51.374Z,0.85
2022-09-12T13:00:21.120Z,2.60
2022-09-12T13:03:02.118Z,1.80
2022-09-12T13:05:31.402Z,2.65
2022-09-12T13:08:10.233Z,1.10
2022-09-12T13:10:37.117Z,1.55
2022-09-12T13:13:07.033Z,0.70
2022-09-12T13:15:36.797Z,1.73
2022-09-12T13:18:11.442Z,1.67
2022-09-12T13:20:48.426Z,1.40
2022-09-12T13:23:26.319Z,1.73
2022-09-12T13:25:55.463Z,0.73
2022-09-12T13:28:22.342Z,0.95
2022-09-12T13:30:58.600Z,19.05
2022-09-12T13:33:39.781Z,2.03
2022-09-12T13:36:13.543Z,5.15
2022-09-12T13:39:08.639Z,1.17
2022-09-12T13:42:03.295Z,1.92
2022-09-12T13:44:31.173Z,0.57
2022-09-12T13:47:00.505Z,0.95
2022-09-12T13:49:35.283Z,2.72
2022-09-12T13:52:04.312Z,24.60
2022-09-12T13:54:31.486Z,7.63
2022-09-12T13:56:59.816Z,7.25
2022-09-12T13:59:26.530Z,2.70
2022-09-12T14:01:53.231Z,4.93
2022-09-12T14:04:41.277Z,2.72
2022-09-12T14:07:20.326Z,6.65
2022-09-12T14:09:57.127Z,1.33
2022-09-12T14:12:34.287Z,1.45
2022-09-12T14:15:01.428Z,0.82
2022-09-12T14:17:36.210Z,2.78
2022-09-12T14:20:08.986Z,1.17
2022-09-12T14:22:36.464Z,1.75
2022-09-12T14:25:04.053Z,1.30
2022-09-12T14:27:41.341Z,2.80
2022-09-12T14:30:19.115Z,3.17
2022-09-12T14:33:11.492Z,1.90
2022-09-12T14:35:43.115Z,1.17
2022-09-12T14:38:10.138Z,0.90
2022-09-12T14:40:48.591Z,0.88
2022-09-12T14:43:21.806Z,3.25
2022-09-12T14:45:59.797Z,1.23
2022-09-12T14:48:29.330Z,0.80
2022-09-12T14:50:56.016Z,1.85
2022-09-12T14:53:37.382Z,1.02
2022-09-12T14:56:12.515Z,3.67
2022-09-12T14:58:40.717Z,1.20
2022-09-12T15:01:07.394Z,3.40
2022-09-12T15:03:51.926Z,1.58
2022-09-12T15:06:30.826Z,3.85
2022-09-12T15:09:00.463Z,19.95
2022-09-12T15:11:27.106Z,19.33
2022-09-12T15:13:54.562Z,1.85
2022-09-12T15:16:21.336Z,7.05
2022-09-12T15:18:48.020Z,30.90
2022-09-12T15:21:17.889Z,25.30
2022-09-12T15:23:46.241Z,3.05
2022-09-12T15:26:15.335Z,2.65
2022-09-12T15:28:42.049Z,1.42
2022-09-12T15:31:16.133Z,3.97
2022-09-12T15:33:42.905Z,10.75
2022-09-12T15:36:15.528Z,2.80
2022-09-12T15:38:42.787Z,1.98
2022-09-12T15:41:15.564Z,6.20
2022-09-12T15:43:42.398Z,2.33
2022-09-12T15:46:13.465Z,1.52
2022-09-12T15:48:40.424Z,1.15
2022-09-12T15:51:15.774Z,1.27
2022-09-12T15:53:43.140Z,1.50
2022-09-12T15:56:10.182Z,1.13
2022-09-12T15:58:49.756Z,2.30
2022-09-12T16:01:24.497Z,2.60
2022-09-12T16:03:51.201Z,2.45
2022-09-12T16:06:17.937Z,3.13
2022-09-12T16:08:44.809Z,14.43
2022-09-12T16:11:23.034Z,3.00
2022-09-12T16:13:51.986Z,0.93
2022-09-12T16:16:18.758Z,4.20
2022-09-12T16:18:45.640Z,1.88
2022-09-12T16:21:15.527Z,2.40
2022-09-12T16:23:47.183Z,1.88
2022-09-12T16:26:14.436Z,1.20
2022-09-12T16:28:41.414Z,5.25
2022-09-12T16:31:11.299Z,4.03
2022-09-12T16:33:39.123Z,3.00
2022-09-12T16:36:11.577Z,5.72
2022-09-12T16:38:46.935Z,2.97
2022-09-12T16:41:17.921Z,43.90
2022-09-12T16:43:45.801Z,37.05
2022-09-12T16:46:16.660Z,25.05
2022-09-12T16:48:52.675Z,7.38
2022-09-12T16:51:21.947Z,5.70
2022-09-12T16:53:49.410Z,2.70
2022-09-12T16:56:22.707Z,2.83
2022-09-12T16:58:50.792Z,4.25
2022-09-12T17:01:20.358Z,3.25
2022-09-12T17:03:47.700Z,2.03
2022-09-12T17:06:16.898Z,1.50
2022-09-12T17:08:49.529Z,2.60
2022-09-12T17:11:22.067Z,2.55
2022-09-12T17:14:04.289Z,4.35
2022-09-12T17:16:35.921Z,20.48
2022-09-12T17:19:03.234Z,10.48
2022-09-12T17:21:30.203Z,6.70
2022-09-12T17:23:56.912Z,4.50
2022-09-12T17:26:23.631Z,2.40
2022-09-12T17:28:50.676Z,5.15
2022-09-12T17:31:17.487Z,40.78
2022-09-12T17:33:44.226Z,119.32
2022-09-12T17:36:15.206Z,38.00
2022-09-12T17:38:43.604Z,9.82
2022-09-12T17:41:18.904Z,8.13
2022-09-12T17:43:47.503Z,17.65
2022-09-12T17:46:14.712Z,11.93
2022-09-12T17:48:41.858Z,10.13
2022-09-12T17:51:13.751Z,6.13
2022-09-12T17:53:41.515Z,16.85
2022-09-12T17:56:09.380Z,9.48
2022-09-12T17:58:38.613Z,10.30
2022-09-12T18:01:26.475Z,8.50
2022-09-12T18:03:56.815Z,4.80
2022-09-12T18:06:24.519Z,35.30
2022-09-12T18:08:51.241Z,11.63
2022-09-12T18:11:18.186Z,11.32
2022-09-12T18:13:46.314Z,6.25
2022-09-12T18:16:13.925Z,55.83
2022-09-12T18:18:41.076Z,13.23
2022-09-12T18:21:09.110Z,12.50
2022-09-12T18:23:35.797Z,7.20
2022-09-12T18:26:04.710Z,6.55
2022-09-12T18:28:35.578Z,7.15
2022-09-12T18:31:02.563Z,6.88
2022-09-12T18:33:29.233Z,5.00
2022-09-12T18:35:55.907Z,6.22
2022-09-12T18:38:22.797Z,5.45
2022-09-12T18:40:49.742Z,5.03
2022-09-12T18:43:16.690Z,6.82
2022-09-12T18:45:43.350Z,6.45
2022-09-12T18:48:10.399Z,4.47
2022-09-12T18:50:37.039Z,5.25
2022-09-12T18:53:03.673Z,10.30
2022-09-12T18:55:30.883Z,6.85
2022-09-12T18:57:58.956Z,7.35
2022-09-12T19:00:26.010Z,6.30
2022-09-12T19:02:53.060Z,5.90
2022-09-12T19:05:19.794Z,14.18
2022-09-12T19:07:46.732Z,8.35
2022-09-12T19:10:13.460Z,6.38
2022-09-12T19:12:40.200Z,6.47
2022-09-12T19:15:09.844Z,8.57
2022-09-12T19:17:36.824Z,10.53
2022-09-12T19:20:05.875Z,6.68
2022-09-12T19:22:32.594Z,5.00
2022-09-12T19:24:59.214Z,4.18
2022-09-12T19:27:25.943Z,3.63
2022-09-12T19:29:53.169Z,4.53
2022-09-12T19:32:20.113Z,8.88
2022-09-12T19:34:46.833Z,4.88
2022-09-12T19:37:13.491Z,5.57
2022-09-12T19:39:44.441Z,5.90
2022-09-12T19:42:11.983Z,5.23
2022-09-12T19:44:38.881Z,4.53
2022-09-12T19:47:05.571Z,3.03
2022-09-12T19:49:32.442Z,7.65
2022-09-12T19:52:00.448Z,21.77
2022-09-12T19:54:27.371Z,38.17
2022-09-12T19:56:54.391Z,18.63
2022-09-12T19:59:21.104Z,12.18
2022-09-12T20:01:47.821Z,7.13
2022-09-12T20:04:14.854Z,16.30
2022-09-12T20:06:41.843Z,12.30
2022-09-12T20:09:09.146Z,12.05
2022-09-12T20:11:35.815Z,7.75
2022-09-12T20:14:02.611Z,6.85
2022-09-12T20:16:30.155Z,7.65
2022-09-12T20:18:59.271Z,5.68
2022-09-12T20:21:31.905Z,7.80
2022-09-12T20:24:03.082Z,6.63
2022-09-12T20:28:56.539Z,5.22
2022-09-12T20:31:23.445Z,7.68
2022-09-12T20:33:52.061Z,4.88
2022-09-12T20:36:20.240Z,6.70
2022-09-12T20:38:52.075Z,12.25
2022-09-12T20:41:22.210Z,14.65
2022-09-12T20:43:50.264Z,4.25
2022-09-12T20:46:21.416Z,4.10
2022-09-12T20:48:48.731Z,10.90
2022-09-12T20:51:15.458Z,7.38
2022-09-12T20:53:42.156Z,9.55
2022-09-12T20:56:08.835Z,5.65
2022-09-12T20:58:36.868Z,3.90
2022-09-12T21:01:11.498Z,5.82
2022-09-12T21:03:39.120Z,4.93
2022-09-12T21:06:07.029Z,3.53
2022-09-12T21:08:34.673Z,4.40
2022-09-12T21:11:01.895Z,9.55
2022-09-12T21:13:28.642Z,7.88
2022-09-12T21:16:03.457Z,5.25
2022-09-12T21:18:30.756Z,16.10
2022-09-12T21:20:57.800Z,12.52
2022-09-12T21:23:25.599Z,8.73
2022-09-12T21:25:52.901Z,9.50
2022-09-12T21:28:20.616Z,7.15
2022-09-12T21:30:48.664Z,6.63
2022-09-12T21:33:15.559Z,7.70
2022-09-12T21:35:42.240Z,7.03
2022-09-12T21:38:09.419Z,6.35
2022-09-12T21:40:36.139Z,11.93
2022-09-12T21:43:03.389Z,4.03
2022-09-12T21:45:30.116Z,5.65
2022-09-12T21:48:00.380Z,14.63
2022-09-12T21:50:27.006Z,7.78
2022-09-12T21:52:53.660Z,6.20
2022-09-12T21:55:20.403Z,6.80
2022-09-12T21:57:47.083Z,6.25
2022-09-12T22:00:16.158Z,5.95
2022-09-12T22:02:43.399Z,30.80
2022-09-12T22:05:10.505Z,17.52
2022-09-12T22:07:37.552Z,14.98
2022-09-12T22:10:05.054Z,11.63
2022-09-12T22:12:34.464Z,9.57
2022-09-12T22:15:12.790Z,8.88
2022-09-12T22:17:48.149Z,7.63
2022-09-12T22:20:15.007Z,8.15
2022-09-12T22:23:00.544Z,5.05
2022-09-12T22:25:27.235Z,6.05
2022-09-12T22:27:54.391Z,5.82
2022-09-12T22:30:22.093Z,6.90
2022-09-12T22:32:50.096Z,6.05
2022-09-12T22:35:17.518Z,4.82
2022-09-12T22:37:44.667Z,5.72
2022-09-12T22:40:12.060Z,5.60
2022-09-12T22:42:39.067Z,7.68
2022-09-12T22:45:07.323Z,5.50
2022-09-12T22:47:34.212Z,5.43
2022-09-12T22:50:00.865Z,6.07
2022-09-12T22:52:27.528Z,5.15
2022-09-12T22:54:54.218Z,8.65
2022-09-12T22:57:20.891Z,8.23
2022-09-12T22:59:47.570Z,4.88
2022-09-12T23:02:14.389Z,4.22
2022-09-12T23:04:41.027Z,3.88
2022-09-12T23:07:07.695Z,4.80
2022-09-12T23:09:35.566Z,2.95
2022-09-12T23:12:02.914Z,5.85
2022-09-12T23:14:29.581Z,3.95
2022-09-12T23:16:56.306Z,4.68
2022-09-12T23:19:22.958Z,3.13
2022-09-12T23:21:49.601Z,12.50
2022-09-12T23:24:16.368Z,30.38
2022-09-12T23:26:43.307Z,25.40
2022-09-12T23:29:09.980Z,6.28
2022-09-12T23:31:36.758Z,6.10
2022-09-12T23:34:06.016Z,5.38
2022-09-12T23:36:33.653Z,7.07
2022-09-12T23:39:00.757Z,36.92
2022-09-12T23:41:27.863Z,12.18
2022-09-12T23:43:54.523Z,4.97
2022-09-12T23:46:21.391Z,5.10
2022-09-12T23:48:48.311Z,3.47
2022-09-12T23:51:15.438Z,11.25
2022-09-12T23:54:00.803Z,7.60
2022-09-12T23:56:27.471Z,3.70
2022-09-12T23:58:54.132Z,6.97
